Reuben, Nebraska
Current Conditions -  °F | °C
As of 7:15 PM on Thursday 18 Dec 2014 (Local Time) from KHDE Reporting Station
Overcast Overcast  
Wind Chill: -2°   Ceiling: 1000
Heat Index: -2°   Visibility: 10mi
Dew Point: -4°   Wind: 3mph
Humidity: 90%   Direction: 260°W
Pressure: 30.14"   Gusts: NA
Location:  40.2849°N, 99.6171°W
Report Text: KHDE 190115Z AUTO 26003KT 10SM OVC010 M02/M03 A3014 RMK AO2 T10201035
Loading
Personal Weather Stations






























Interactive Weather Map New forecast layout! Learn more

10-Day Weather Forecast

Advertisements
Track Severe Weather on mobile